Time;durP1;ratioP1;P1;durP2;ratioP2;P2;SDS_P1;SDS_P2;PMS_P1;PMS_P2;Temp;Humidity;BMP_temperature;BMP_pressure;BME280_temperature;BME280_humidity;BME280_pressure;Samples;Min_cycle;Max_cycle;Signal;HPM_P1;HPM_P2
2021/12/27 00:01:33;;;;;;;0.63;0.40;;;20.60;29.70;21.10;92774.00;;;;10233817;28;45252;-66
2021/12/27 00:06:33;;;;;;;0.30;0.30;;;20.60;29.20;21.10;92776.00;;;;10233208;28;46867;-63
2021/12/27 00:11:34;;;;;;;0.30;0.30;;;20.60;29.10;21.10;92778.00;;;;10231782;28;46411;-63
2021/12/27 00:16:35;;;;;;;0.60;0.40;;;20.60;29.10;21.10;92776.00;;;;10232440;28;46368;-63
2021/12/27 00:21:35;;;;;;;0.70;0.32;;;20.60;29.10;21.00;92765.00;;;;10241127;23;46305;-61
2021/12/27 00:26:36;;;;;;;0.25;0.25;;;20.60;29.10;21.00;92763.00;;;;10192522;28;48016;-61
2021/12/27 00:31:37;;;;;;;0.30;0.30;;;20.60;29.10;21.00;92760.00;;;;10192653;28;45498;-61
2021/12/27 00:36:38;;;;;;;0.17;0.17;;;20.60;29.10;21.00;92773.00;;;;10193755;28;45188;-61
2021/12/27 00:41:38;;;;;;;0.40;0.40;;;20.50;29.10;21.00;92763.00;;;;10192035;28;46982;-61
2021/12/27 00:46:39;;;;;;;0.20;0.20;;;20.50;29.10;21.00;92762.00;;;;10192240;28;46371;-61
2021/12/27 00:51:40;;;;;;;0.30;0.30;;;20.50;29.10;21.00;92750.00;;;;10192234;28;45330;-61
2021/12/27 00:56:41;;;;;;;0.45;0.30;;;20.50;29.10;21.00;92761.00;;;;10191677;28;48203;-61
2021/12/27 01:01:42;;;;;;;0.45;0.30;;;20.50;29.10;20.90;92746.00;;;;10191808;28;46238;-60
2021/12/27 01:06:43;;;;;;;0.20;0.20;;;20.50;29.10;20.90;92754.00;;;;10191688;28;47088;-61
2021/12/27 01:12:10;;;;;;;0.30;0.30;;;20.50;29.10;20.90;92747.00;;;;10191588;28;45592;-61
2021/12/27 01:17:08;;;;;;;0.20;0.20;;;20.50;29.10;20.90;92754.00;;;;10191426;28;45315;-60
2021/12/27 01:22:08;;;;;;;0.30;0.30;;;20.50;29.10;21.00;92739.00;;;;10192027;28;46701;-61
2021/12/27 01:27:09;;;;;;;0.20;0.20;;;20.50;29.10;20.90;92750.00;;;;10191654;28;47472;-60
2021/12/27 01:32:10;;;;;;;0.30;0.30;;;20.50;29.10;20.90;92746.00;;;;10198287;28;45467;-60
2021/12/27 01:37:12;;;;;;;0.10;0.10;;;20.50;29.10;20.90;92757.00;;;;10198157;28;46079;-61
2021/12/27 01:42:13;;;;;;;0.20;0.20;;;20.50;29.00;20.90;92744.00;;;;10197894;28;45377;-61
2021/12/27 01:47:14;;;;;;;0.20;0.20;;;20.50;29.10;20.90;92743.00;;;;10197764;28;45237;-61
2021/12/27 01:52:14;;;;;;;0.10;0.10;;;20.50;29.10;20.90;92748.00;;;;10198864;28;45230;-60
2021/12/27 01:57:16;;;;;;;0.13;0.13;;;20.50;29.00;20.90;92736.00;;;;10181196;28;47311;-61
2021/12/27 02:02:18;;;;;;;0.20;0.20;;;20.50;29.10;20.90;92726.00;;;;10192281;28;45418;-61
2021/12/27 02:07:19;;;;;;;0.30;0.20;;;20.50;29.10;20.90;92733.00;;;;10195848;28;45371;-61
2021/12/27 02:12:19;;;;;;;0.10;0.10;;;20.40;29.00;20.90;92731.00;;;;10196710;28;47189;-60
2021/12/27 02:17:21;;;;;;;0.10;0.10;;;20.50;29.00;20.90;92740.00;;;;10196587;28;46874;-62
2021/12/27 02:22:22;;;;;;;0.22;0.20;;;20.40;29.10;20.90;92750.00;;;;10196481;28;45586;-60
2021/12/27 02:27:23;;;;;;;0.20;0.20;;;20.40;29.00;20.90;92749.00;;;;10196638;28;45261;-61
2021/12/27 02:32:23;;;;;;;0.25;0.25;;;20.40;29.00;20.80;92752.00;;;;10196562;28;45353;-60
2021/12/27 02:37:24;;;;;;;0.30;0.22;;;20.40;29.00;20.80;92729.00;;;;10212050;28;47560;-60
2021/12/27 02:42:25;;;;;;;0.20;0.20;;;20.40;29.00;20.80;92729.00;;;;10195397;28;45250;-62
2021/12/27 02:47:25;;;;;;;0.40;0.30;;;20.40;29.10;20.80;92732.00;;;;10197171;28;45225;-61
2021/12/27 02:52:26;;;;;;;0.25;0.25;;;20.40;29.00;20.80;92720.00;;;;10197160;28;45657;-60
2021/12/27 02:57:27;;;;;;;0.40;0.35;;;20.40;29.00;20.80;92707.00;;;;10195642;28;46464;-60
2021/12/27 03:02:27;;;;;;;0.38;0.30;;;20.40;29.10;20.80;92696.00;;;;10195724;28;46803;-60
2021/12/27 03:07:28;;;;;;;0.20;0.20;;;20.40;29.10;20.80;92698.00;;;;10195345;28;45474;-61
2021/12/27 03:12:29;;;;;;;0.30;0.30;;;20.40;29.00;20.80;92706.00;;;;10196392;28;45377;-61
2021/12/27 03:17:29;;;;;;;0.32;0.30;;;20.40;29.10;20.80;92711.00;;;;10196237;28;45334;-61
2021/12/27 03:22:30;;;;;;;0.20;0.20;;;20.40;29.00;20.80;92696.00;;;;10178340;28;48027;-60
2021/12/27 03:27:31;;;;;;;0.20;0.20;;;20.40;29.10;20.80;92698.00;;;;10194587;28;45478;-60
2021/12/27 03:32:33;;;;;;;0.43;0.20;;;20.40;29.00;20.80;92697.00;;;;10195816;28;46365;-60
2021/12/27 03:37:35;;;;;;;0.47;0.20;;;20.40;29.00;20.80;92689.00;;;;10194322;28;45612;-61
2021/12/27 03:42:37;;;;;;;0.10;0.10;;;20.40;29.00;20.80;92695.00;;;;10194276;28;45209;-61
2021/12/27 03:47:37;;;;;;;0.30;0.20;;;20.40;29.10;20.80;92701.00;;;;10193936;28;46124;-61
2021/12/27 03:52:38;;;;;;;0.30;0.20;;;20.40;29.00;20.80;92689.00;;;;10176599;28;47263;-60
2021/12/27 03:57:42;;;;;;;0.10;0.10;;;20.40;29.00;20.80;92665.00;;;;10177637;28;48193;-60
2021/12/27 04:02:43;;;;;;;0.30;0.28;;;20.40;29.00;20.80;92663.00;;;;10193630;28;45503;-61
2021/12/27 04:07:45;;;;;;;0.28;0.28;;;20.40;29.00;20.80;92675.00;;;;10193150;28;45425;-60
2021/12/27 04:12:46;;;;;;;0.17;0.10;;;20.40;29.00;20.80;92689.00;;;;10177683;28;48065;-60
2021/12/27 04:17:47;;;;;;;0.30;0.30;;;20.40;29.00;20.80;92684.00;;;;10192986;28;46259;-61
2021/12/27 04:22:49;;;;;;;0.13;0.10;;;20.40;29.00;20.80;92684.00;;;;10192983;28;46429;-61
2021/12/27 04:27:50;;;;;;;0.17;0.17;;;20.30;29.00;20.80;92661.00;;;;10192701;28;45545;-60
2021/12/27 04:32:51;;;;;;;0.20;0.20;;;20.40;29.10;20.80;92651.00;;;;10192580;28;46981;-60
2021/12/27 04:37:52;;;;;;;0.20;0.20;;;20.40;29.10;20.80;92677.00;;;;10192462;28;46161;-60
2021/12/27 04:42:59;;;;;;;0.20;0.20;;;20.40;29.10;20.80;92659.00;;;;10192685;28;45461;-60
2021/12/27 04:48:01;;;;;;;0.28;0.28;;;20.30;29.10;20.80;92680.00;;;;10191798;28;47344;-61
2021/12/27 04:53:03;;;;;;;0.20;0.20;;;20.40;29.10;20.80;92675.00;;;;10208325;28;47087;-61
2021/12/27 04:58:08;;;;;;;0.20;0.20;;;20.40;29.10;20.80;92680.00;;;;10192866;28;45602;-63
2021/12/27 05:03:09;;;;;;;0.28;0.20;;;20.30;29.60;20.80;92673.00;;;;10192729;28;46070;-60
2021/12/27 05:08:11;;;;;;;0.10;0.10;;;20.30;29.10;20.80;92655.00;;;;10191337;28;46872;-60
2021/12/27 05:13:11;;;;;;;0.20;0.20;;;20.40;29.20;20.90;92657.00;;;;10191632;28;45194;-61
2021/12/27 05:18:12;;;;;;;0.20;0.20;;;20.40;29.10;20.90;92635.00;;;;10190952;28;45381;-61
2021/12/27 05:23:13;;;;;;;0.20;0.20;;;20.40;29.10;21.00;92627.00;;;;10191618;28;45320;-60
2021/12/27 05:28:14;;;;;;;0.10;0.10;;;20.50;29.10;21.00;92632.00;;;;10190884;28;45323;-61
2021/12/27 05:33:16;;;;;;;0.15;0.15;;;20.50;29.10;21.00;92623.00;;;;10191180;28;47345;-61
2021/12/27 05:38:16;;;;;;;0.20;0.20;;;20.60;29.10;21.10;92628.00;;;;10191908;28;45576;-61
2021/12/27 05:43:17;;;;;;;0.15;0.15;;;20.60;29.00;21.10;92607.00;;;;10192487;28;45298;-60
2021/12/27 05:48:17;;;;;;;0.20;0.20;;;20.60;29.00;21.10;92611.00;;;;10191895;28;45350;-62
2021/12/27 05:53:20;;;;;;;0.28;0.20;;;20.60;29.00;21.10;92608.00;;;;10192272;28;45245;-61
2021/12/27 05:58:20;;;;;;;0.22;0.20;;;20.60;29.00;21.10;92612.00;;;;10174257;28;47208;-61
2021/12/27 06:03:21;;;;;;;0.32;0.20;;;20.70;29.00;21.20;92616.00;;;;10174674;28;46930;-61
2021/12/27 06:08:22;;;;;;;0.20;0.20;;;20.70;28.90;21.20;92605.00;;;;10190263;28;45325;-61
2021/12/27 06:13:22;;;;;;;0.20;0.20;;;20.70;28.90;21.20;92603.00;;;;10191271;28;46603;-61
2021/12/27 06:18:24;;;;;;;0.35;0.30;;;20.70;28.80;21.20;92604.00;;;;10195812;28;48402;-62
2021/12/27 06:23:24;;;;;;;0.20;0.20;;;20.70;28.80;21.20;92602.00;;;;10196508;28;45298;-61
2021/12/27 06:28:27;;;;;;;0.20;0.20;;;20.80;28.80;21.20;92599.00;;;;10196832;28;45288;-63
2021/12/27 06:33:29;;;;;;;0.20;0.20;;;20.80;28.80;21.30;92584.00;;;;10197346;28;45225;-63
2021/12/27 06:38:30;;;;;;;0.55;0.22;;;20.80;28.80;21.30;92590.00;;;;10179198;28;48315;-62
2021/12/27 06:43:31;;;;;;;0.30;0.30;;;20.80;28.80;21.30;92577.00;;;;10194468;28;46567;-63
2021/12/27 06:48:31;;;;;;;0.20;0.20;;;20.80;28.70;21.30;92567.00;;;;10196009;28;46475;-62
2021/12/27 06:53:32;;;;;;;0.20;0.17;;;20.80;28.70;21.30;92555.00;;;;10195317;28;46393;-63
2021/12/27 06:58:33;;;;;;;0.25;0.20;;;20.80;28.70;21.30;92571.00;;;;10195655;28;45261;-62
2021/12/27 07:03:33;;;;;;;0.38;0.38;;;20.80;28.60;21.30;92555.00;;;;10179065;28;47933;-63
2021/12/27 07:08:34;;;;;;;0.20;0.20;;;20.90;28.60;21.40;92574.00;;;;10195584;28;45217;-62
2021/12/27 07:13:35;;;;;;;0.25;0.20;;;20.90;28.60;21.40;92563.00;;;;10194488;28;45188;-63
2021/12/27 07:18:35;;;;;;;0.20;0.20;;;20.90;28.60;21.40;92567.00;;;;10193535;28;47275;-62
2021/12/27 07:23:36;;;;;;;0.70;0.20;;;20.90;28.50;21.40;92565.00;;;;10204079;28;47238;-63
2021/12/27 07:28:37;;;;;;;0.20;0.20;;;20.90;28.50;21.40;92573.00;;;;10193523;28;45195;-61
2021/12/27 07:33:38;;;;;;;0.20;0.20;;;20.90;28.50;21.40;92575.00;;;;10193815;28;46522;-63
2021/12/27 07:38:40;;;;;;;0.35;0.30;;;20.90;28.50;21.40;92580.00;;;;10192796;28;45665;-63
2021/12/27 07:43:41;;;;;;;0.43;0.30;;;20.90;28.50;21.40;92566.00;;;;10193397;28;45239;-62
2021/12/27 07:48:42;;;;;;;0.45;0.20;;;20.90;28.50;21.40;92571.00;;;;10193003;28;46308;-63
2021/12/27 07:53:43;;;;;;;0.40;0.30;;;20.90;28.50;21.40;92573.00;;;;10193076;28;46627;-63
2021/12/27 07:58:43;;;;;;;0.50;0.40;;;21.00;28.50;21.40;92564.00;;;;10193128;28;45381;-63
2021/12/27 08:03:44;;;;;;;0.55;0.40;;;21.00;28.50;21.40;92570.00;;;;10173620;28;47059;-63
2021/12/27 08:08:45;;;;;;;0.40;0.30;;;21.00;28.50;21.40;92570.00;;;;10158733;28;47647;-63
2021/12/27 08:13:47;;;;;;;0.50;0.40;;;21.00;28.50;21.40;92566.00;;;;10174869;28;46320;-63
2021/12/27 08:18:47;;;;;;;0.35;0.35;;;21.00;28.50;21.50;92569.00;;;;10191528;28;45429;-63
2021/12/27 08:23:48;;;;;;;0.38;0.38;;;21.00;28.60;21.50;92562.00;;;;10193546;28;45449;-63
2021/12/27 08:28:53;;;;;;;0.82;0.50;;;21.00;28.60;21.50;92573.00;;;;10175055;28;47250;-62
2021/12/27 08:33:53;;;;;;;0.60;0.50;;;21.00;28.60;21.50;92555.00;;;;10191846;28;45321;-63
2021/12/27 08:38:54;;;;;;;0.63;0.38;;;21.00;28.50;21.50;92571.00;;;;10174273;28;47528;-63
2021/12/27 08:44:00;;;;;;;0.57;0.57;;;21.00;28.60;21.40;92574.00;;;;10191841;28;45569;-63
2021/12/27 08:49:03;;;;;;;1.10;1.00;;;21.00;28.40;20.00;92580.00;;;;10175390;28;47399;-65
2021/12/27 08:54:05;;;;;;;1.13;0.77;;;20.20;29.30;20.80;92571.00;;;;10191437;28;45267;-60
2021/12/27 08:59:05;;;;;;;0.75;0.60;;;20.30;29.40;21.10;92556.00;;;;10187938;28;45292;-59
2021/12/27 09:04:07;;;;;;;0.77;0.60;;;20.50;29.20;21.20;92569.00;;;;10191002;28;46161;-59
2021/12/27 09:09:08;;;;;;;0.50;0.50;;;20.70;28.90;21.30;92572.00;;;;10191381;28;46049;-58
2021/12/27 09:14:09;;;;;;;1.00;0.70;;;20.80;28.80;21.40;92565.00;;;;10191056;28;45614;-59
2021/12/27 09:19:11;;;;;;;1.27;0.68;;;20.90;28.70;21.40;92576.00;;;;10188594;28;45212;-56
2021/12/27 09:24:11;;;;;;;1.13;0.63;;;21.00;28.60;21.50;92560.00;;;;10189035;28;45340;-59
2021/12/27 09:29:12;;;;;;;0.60;0.60;;;21.00;28.50;21.50;92565.00;;;;10189488;28;45234;-60
2021/12/27 09:34:13;;;;;;;0.85;0.40;;;21.10;28.50;21.50;92557.00;;;;10188906;28;45367;-58
2021/12/27 09:39:13;;;;;;;1.17;0.50;;;21.10;28.40;21.60;92556.00;;;;10188796;28;46389;-58
2021/12/27 09:44:14;;;;;;;0.80;0.50;;;21.10;28.40;21.50;92554.00;;;;10189004;28;45200;-58
2021/12/27 09:49:17;;;;;;;0.45;0.45;;;21.10;28.40;21.50;92544.00;;;;10190518;28;45289;-60
2021/12/27 09:54:18;;;;;;;0.60;0.40;;;21.10;28.50;21.60;92554.00;;;;10196796;28;45239;-58
2021/12/27 09:59:20;;;;;;;0.40;0.40;;;21.10;28.40;21.50;92540.00;;;;10195607;28;45377;-59
2021/12/27 10:04:21;;;;;;;1.48;0.60;;;21.10;28.40;21.50;92529.00;;;;10195173;28;45327;-59
2021/12/27 10:09:21;;;;;;;1.15;0.70;;;21.10;28.50;21.50;92526.00;;;;10194942;28;45208;-59
2021/12/27 10:14:24;;;;;;;0.80;0.60;;;21.10;28.60;21.50;92523.00;;;;10195204;28;45209;-58
2021/12/27 10:19:25;;;;;;;1.08;0.60;;;21.10;28.60;21.50;92525.00;;;;10193703;28;45588;-59
2021/12/27 10:24:29;;;;;;;0.80;0.60;;;21.10;28.60;21.60;92524.00;;;;10195985;28;45399;-58
2021/12/27 10:29:38;;;;;;;0.63;0.50;;;21.10;28.60;21.60;92509.00;;;;10194156;28;46180;-60
2021/12/27 10:34:52;;;;;;;0.88;0.60;;;21.10;28.60;21.60;92502.00;;;;10194935;28;45428;-58
2021/12/27 10:40:02;;;;;;;0.65;0.45;;;21.20;28.60;21.60;92516.00;;;;10194682;28;46254;-57
2021/12/27 10:45:09;;;;;;;1.20;0.60;;;21.20;28.60;21.60;92507.00;;;;10195258;28;45360;-59
2021/12/27 10:50:20;;;;;;;1.25;0.40;;;21.20;28.70;21.60;92510.00;;;;10194650;28;45389;-59
2021/12/27 10:55:46;;;;;;;0.73;0.60;;;21.20;28.60;21.60;92514.00;;;;10193938;28;47028;-58
2021/12/27 11:00:57;;;;;;;2.83;0.60;;;21.20;28.60;21.60;92488.00;;;;10193731;28;46101;-58
2021/12/27 11:06:00;;;;;;;0.68;0.50;;;21.20;28.60;21.60;92503.00;;;;10193396;28;45284;-59
2021/12/27 11:11:02;;;;;;;0.65;0.40;;;21.20;28.60;21.60;92484.00;;;;10192759;28;45581;-58
2021/12/27 11:16:04;;;;;;;0.50;0.50;;;21.20;28.60;21.60;92491.00;;;;10192723;28;45345;-58
2021/12/27 11:21:15;;;;;;;3.03;0.60;;;21.20;28.60;21.60;92507.00;;;;10173197;28;47563;-58
2021/12/27 11:26:23;;;;;;;1.27;0.70;;;21.20;28.60;21.60;92496.00;;;;10191934;28;45187;-59
2021/12/27 11:31:28;;;;;;;1.63;0.82;;;21.20;28.60;21.60;92500.00;;;;10183519;28;45395;-58
2021/12/27 11:36:36;;;;;;;3.17;1.02;;;21.20;28.60;21.60;92502.00;;;;10192747;28;45826;-58
2021/12/27 11:41:37;;;;;;;3.20;1.25;;;21.20;28.60;21.60;92493.00;;;;10193022;28;45327;-58
2021/12/27 11:46:51;;;;;;;6.32;1.40;;;21.20;28.70;21.60;92502.00;;;;10193298;28;45362;-58
2021/12/27 11:51:53;;;;;;;4.00;1.58;;;21.20;28.70;21.60;92495.00;;;;10167985;28;45542;-58
2021/12/27 11:56:54;;;;;;;6.10;1.70;;;21.20;28.70;21.50;92482.00;;;;10189406;28;46972;-58
2021/12/27 12:02:20;;;;;;;4.25;1.60;;;21.20;28.80;21.50;92491.00;;;;10192424;28;45496;-57
2021/12/27 12:07:33;;;;;;;4.50;1.45;;;21.10;28.80;21.60;92486.00;;;;10190591;28;45305;-58
2021/12/27 12:12:33;;;;;;;5.28;1.30;;;21.10;28.80;21.60;92485.00;;;;10193175;28;46407;-58
2021/12/27 12:17:44;;;;;;;5.30;1.80;;;21.20;28.80;21.60;92480.00;;;;10192957;28;46679;-58
2021/12/27 12:22:45;;;;;;;3.80;1.38;;;21.20;28.80;21.60;92481.00;;;;10192343;28;45178;-60
2021/12/27 12:28:09;;;;;;;4.03;1.50;;;21.20;28.70;21.60;92468.00;;;;10188683;28;45375;-59
2021/12/27 12:33:12;;;;;;;5.30;1.95;;;21.20;28.80;21.60;92438.00;;;;10190521;28;47145;-58
2021/12/27 12:38:33;;;;;;;5.78;1.60;;;21.20;28.80;21.60;92456.00;;;;10190703;28;45451;-62
2021/12/27 12:43:45;;;;;;;4.75;1.60;;;21.20;28.90;21.60;92462.00;;;;10191392;28;45415;-59
2021/12/27 12:49:07;;;;;;;4.68;1.80;;;21.20;28.90;21.60;92447.00;;;;10191588;28;46403;-57
2021/12/27 12:54:23;;;;;;;3.85;1.58;;;21.20;28.90;21.60;92449.00;;;;10188579;28;45398;-59
2021/12/27 12:59:31;;;;;;;3.60;1.53;;;21.20;28.90;21.60;92468.00;;;;10181579;28;45512;-59
2021/12/27 13:05:04;;;;;;;3.80;1.38;;;21.20;28.90;21.60;92475.00;;;;10187862;28;45597;-61
2021/12/27 13:10:10;;;;;;;5.30;1.58;;;21.20;28.90;21.60;92479.00;;;;10189517;28;46221;-59
2021/12/27 13:15:23;;;;;;;3.80;1.53;;;21.20;29.00;21.60;92469.00;;;;10191199;28;45399;-59
2021/12/27 13:20:24;;;;;;;3.85;1.40;;;21.20;29.00;21.60;92471.00;;;;10186695;28;46977;-58
2021/12/27 13:25:48;;;;;;;3.45;1.20;;;21.20;28.90;21.70;92480.00;;;;10177017;28;45364;-58
2021/12/27 13:30:51;;;;;;;2.22;1.30;;;21.20;28.90;21.60;92461.00;;;;10191673;28;47561;-59
2021/12/27 13:35:54;;;;;;;3.95;1.48;;;21.20;28.90;21.60;92455.00;;;;10196196;28;45187;-60
2021/12/27 13:41:09;;;;;;;2.40;1.10;;;21.20;28.90;21.60;92454.00;;;;10194838;28;45287;-60
2021/12/27 13:46:12;;;;;;;2.88;1.13;;;21.20;28.90;21.60;92480.00;;;;10194340;28;45239;-58
2021/12/27 13:51:24;;;;;;;3.55;0.98;;;21.20;29.00;21.60;92496.00;;;;10195006;28;45205;-58
2021/12/27 13:56:27;;;;;;;3.60;1.30;;;21.20;29.00;21.60;92495.00;;;;10193559;28;45244;-60
2021/12/27 14:01:28;;;;;;;2.55;1.17;;;21.20;29.00;21.60;92499.00;;;;10192713;28;45254;-57
2021/12/27 14:06:41;;;;;;;3.22;1.10;;;21.20;29.00;21.60;92490.00;;;;10195206;28;45306;-60
2021/12/27 14:11:55;;;;;;;2.60;1.10;;;21.20;29.00;21.60;92493.00;;;;10194765;28;45170;-59
2021/12/27 14:17:13;;;;;;;2.42;1.20;;;21.20;29.00;21.60;92492.00;;;;10201194;28;45477;-58
2021/12/27 14:22:24;;;;;;;2.67;1.20;;;21.20;29.00;21.60;92503.00;;;;10190024;28;46523;-61
2021/12/27 14:27:34;;;;;;;2.05;1.25;;;21.20;29.10;21.60;92500.00;;;;10190573;28;48005;-59
2021/12/27 14:32:37;;;;;;;2.03;1.50;;;21.20;29.10;21.60;92490.00;;;;10187846;28;45431;-58
2021/12/27 14:37:38;;;;;;;3.28;1.63;;;21.20;29.10;21.60;92505.00;;;;10206369;28;46909;-59
2021/12/27 14:42:39;;;;;;;3.75;1.60;;;21.20;29.00;21.60;92516.00;;;;10194502;28;45284;-60
2021/12/27 14:47:40;;;;;;;3.85;1.77;;;21.20;29.10;21.60;92528.00;;;;10192291;28;45907;-59
2021/12/27 14:52:42;;;;;;;4.40;1.42;;;21.20;29.00;21.60;92521.00;;;;10190204;28;45935;-59
2021/12/27 14:57:43;;;;;;;1.80;1.30;;;21.20;29.00;21.60;92515.00;;;;10190393;28;45444;-58
2021/12/27 15:02:44;;;;;;;2.47;1.45;;;21.20;29.00;21.60;92527.00;;;;10191039;28;47220;-59
2021/12/27 15:07:45;;;;;;;2.13;1.30;;;21.20;29.00;21.60;92536.00;;;;10192356;28;45451;-58
2021/12/27 15:12:47;;;;;;;2.30;1.23;;;21.20;29.00;21.60;92532.00;;;;10190943;28;45331;-60
2021/12/27 15:17:52;;;;;;;2.17;1.30;;;21.20;29.00;21.60;92530.00;;;;10192464;28;45457;-59
2021/12/27 15:22:54;;;;;;;3.20;1.30;;;21.20;29.10;21.60;92537.00;;;;10172589;28;47430;-58
2021/12/27 15:27:54;;;;;;;2.00;1.20;;;21.20;29.00;21.60;92530.00;;;;10207977;28;48151;-59
2021/12/27 15:32:57;;;;;;;2.03;1.10;;;21.20;29.00;21.60;92536.00;;;;10191099;28;45313;-60
2021/12/27 15:37:58;;;;;;;1.90;1.20;;;21.20;29.00;21.60;92536.00;;;;10192041;28;45466;-59
2021/12/27 15:43:01;;;;;;;2.58;1.27;;;21.20;29.00;21.60;92541.00;;;;10196852;28;48470;-59
2021/12/27 15:48:04;;;;;;;1.80;1.05;;;21.20;29.00;21.60;92545.00;;;;10193793;28;45511;-57
2021/12/27 15:53:06;;;;;;;1.63;1.00;;;21.20;29.00;21.60;92529.00;;;;10194722;28;45286;-59
2021/12/27 15:58:07;;;;;;;1.60;1.10;;;21.20;29.00;21.60;92543.00;;;;10192627;28;45287;-60
2021/12/27 16:03:08;;;;;;;2.25;1.20;;;21.20;29.00;21.60;92546.00;;;;10209206;28;45103;-59
2021/12/27 16:08:08;;;;;;;2.67;1.20;;;21.20;29.00;21.60;92533.00;;;;10175190;28;46010;-57
2021/12/27 16:13:10;;;;;;;3.25;1.10;;;21.20;29.00;21.60;92540.00;;;;10189857;28;45961;-59
2021/12/27 16:18:10;;;;;;;1.40;0.95;;;21.20;29.00;21.60;92548.00;;;;10191212;28;45290;-63
2021/12/27 16:23:11;;;;;;;2.17;1.08;;;21.20;29.00;21.60;92544.00;;;;10190720;28;46430;-58
2021/12/27 16:28:11;;;;;;;3.05;1.50;;;21.20;29.00;21.70;92540.00;;;;10196620;28;46240;-59
2021/12/27 16:33:14;;;;;;;2.22;1.27;;;21.20;29.00;21.70;92550.00;;;;10184057;28;45171;-61
2021/12/27 16:38:16;;;;;;;1.85;0.98;;;21.30;28.90;21.80;92549.00;;;;10189376;28;46265;-60
2021/12/27 16:43:17;;;;;;;2.10;1.30;;;21.30;28.90;21.80;92531.00;;;;10190278;28;45588;-61
2021/12/27 16:48:17;;;;;;;2.15;1.02;;;21.40;28.80;21.80;92554.00;;;;10191043;28;45988;-58
2021/12/27 16:53:18;;;;;;;1.77;1.10;;;21.40;28.80;21.80;92556.00;;;;10191566;28;45295;-59
2021/12/27 16:58:19;;;;;;;1.80;0.95;;;21.40;28.70;21.90;92557.00;;;;10187274;28;47010;-58
2021/12/27 17:03:19;;;;;;;2.50;0.98;;;21.40;28.70;21.90;92549.00;;;;10191362;28;46189;-59
2021/12/27 17:08:20;;;;;;;2.40;1.20;;;21.40;28.70;21.90;92562.00;;;;10188972;28;46117;-60
2021/12/27 17:13:21;;;;;;;1.50;1.00;;;21.40;28.60;21.90;92568.00;;;;10190812;28;46690;-60
2021/12/27 17:18:21;;;;;;;2.63;1.35;;;21.40;28.60;21.90;92569.00;;;;10153202;28;46033;-59
2021/12/27 17:23:22;;;;;;;3.00;1.60;;;21.40;28.60;21.90;92568.00;;;;10185889;28;48782;-61
2021/12/27 17:28:23;;;;;;;2.40;1.20;;;21.40;28.60;21.90;92577.00;;;;10186732;28;45423;-59
2021/12/27 17:33:25;;;;;;;1.70;1.00;;;21.50;28.60;21.90;92581.00;;;;10141497;28;46852;-59
2021/12/27 17:38:29;;;;;;;3.13;1.08;;;21.50;28.60;21.90;92577.00;;;;10202268;28;46657;-59
2021/12/27 17:43:30;;;;;;;2.25;1.13;;;21.50;28.60;21.90;92592.00;;;;10185966;28;45534;-60
2021/12/27 17:48:30;;;;;;;1.52;1.10;;;21.50;28.60;21.90;92590.00;;;;10188659;28;46580;-59
2021/12/27 17:53:31;;;;;;;2.30;1.13;;;21.50;28.60;21.90;92596.00;;;;10190320;28;45494;-61
2021/12/27 17:58:32;;;;;;;1.55;1.05;;;21.50;28.50;21.90;92607.00;;;;10187088;28;45387;-58
2021/12/27 18:03:33;;;;;;;2.22;1.20;;;21.50;28.50;21.90;92609.00;;;;10180893;28;45686;-59
2021/12/27 18:08:34;;;;;;;1.60;1.10;;;21.50;28.50;21.90;92619.00;;;;10203305;23;45301;-58
2021/12/27 18:13:36;;;;;;;1.80;1.00;;;21.50;28.50;21.90;92616.00;;;;10193716;28;46431;-60
2021/12/27 18:18:38;;;;;;;1.88;1.10;;;21.50;28.50;21.90;92623.00;;;;10178877;28;46332;-59
2021/12/27 18:23:39;;;;;;;1.25;0.93;;;21.50;28.50;21.90;92631.00;;;;10180407;28;47218;-59
2021/12/27 18:28:39;;;;;;;1.42;1.00;;;21.50;28.50;21.90;92622.00;;;;10180317;28;46404;-58
2021/12/27 18:33:40;;;;;;;2.10;1.00;;;21.50;28.50;21.90;92623.00;;;;10158683;28;45333;-59
2021/12/27 18:38:41;;;;;;;3.05;1.10;;;21.50;28.50;22.00;92628.00;;;;10156677;28;47379;-59
2021/12/27 18:43:42;;;;;;;1.60;1.00;;;21.50;28.50;22.00;92647.00;;;;10154113;28;47992;-58
2021/12/27 18:48:42;;;;;;;1.65;1.00;;;21.50;28.40;22.00;92634.00;;;;10169338;28;45279;-59
2021/12/27 18:53:44;;;;;;;1.70;1.00;;;21.60;28.50;22.00;92643.00;;;;10148745;28;46218;-60
2021/12/27 18:58:48;;;;;;;1.50;1.00;;;21.60;28.40;22.00;92649.00;;;;10169431;28;45230;-58
2021/12/27 19:03:48;;;;;;;1.67;1.23;;;21.60;28.40;22.00;92651.00;;;;10166956;28;46126;-59
2021/12/27 19:08:49;;;;;;;1.98;1.15;;;21.60;28.40;22.00;92634.00;;;;10153626;29;48013;-59
2021/12/27 19:13:52;;;;;;;1.67;1.00;;;21.60;28.40;22.00;92657.00;;;;10168023;28;45932;-59
2021/12/27 19:18:53;;;;;;;1.30;0.90;;;21.60;28.40;22.00;92666.00;;;;10155642;28;47027;-59
2021/12/27 19:23:53;;;;;;;1.55;0.98;;;21.50;28.40;22.00;92654.00;;;;10169955;28;46297;-60
2021/12/27 19:28:54;;;;;;;1.30;0.90;;;21.60;28.40;22.00;92670.00;;;;10192392;28;46213;-59
2021/12/27 19:33:55;;;;;;;1.60;0.82;;;21.50;28.40;22.00;92664.00;;;;10173419;28;45477;-60
2021/12/27 19:38:56;;;;;;;1.50;1.00;;;21.50;28.40;22.00;92671.00;;;;10162675;28;47179;-59
2021/12/27 19:43:56;;;;;;;1.45;0.93;;;21.60;28.40;22.00;92651.00;;;;10154265;29;46282;-60
2021/12/27 19:48:57;;;;;;;1.52;0.88;;;21.50;28.30;22.00;92671.00;;;;10152924;28;46211;-60
2021/12/27 19:53:59;;;;;;;1.00;0.80;;;21.60;28.40;22.00;92667.00;;;;10159545;28;45432;-58
2021/12/27 19:59:00;;;;;;;1.50;0.90;;;21.60;28.40;22.00;92662.00;;;;10100134;28;47478;-59
2021/12/27 20:04:01;;;;;;;1.67;0.93;;;21.60;28.40;22.00;92657.00;;;;10168152;28;45302;-59
2021/12/27 20:09:02;;;;;;;1.27;0.90;;;21.50;28.40;22.00;92664.00;;;;10167112;28;45416;-61
2021/12/27 20:14:06;;;;;;;1.08;0.80;;;21.60;28.40;22.00;92668.00;;;;10184002;28;47321;-59
2021/12/27 20:19:07;;;;;;;1.45;1.00;;;21.60;28.40;22.10;92669.00;;;;10166739;28;47000;-58
2021/12/27 20:24:08;;;;;;;2.10;0.68;;;21.60;28.40;22.00;92666.00;;;;10167732;28;46668;-58
2021/12/27 20:29:09;;;;;;;1.20;0.80;;;21.60;28.40;22.00;92674.00;;;;10165727;28;45412;-61
2021/12/27 20:34:10;;;;;;;0.65;0.60;;;21.60;28.40;22.00;92668.00;;;;10151997;29;45316;-59
2021/12/27 20:39:11;;;;;;;1.63;0.82;;;21.60;28.40;22.00;92662.00;;;;10166569;28;45529;-61
2021/12/27 20:44:11;;;;;;;0.90;0.70;;;21.60;28.40;22.00;92675.00;;;;10167270;28;45390;-60
2021/12/27 20:49:12;;;;;;;1.17;0.80;;;21.60;28.40;22.00;92665.00;;;;10167053;28;46584;-59
2021/12/27 20:54:13;;;;;;;1.88;1.00;;;21.60;28.40;22.00;92684.00;;;;10148737;29;47964;-60
2021/12/27 20:59:14;;;;;;;1.25;0.80;;;21.60;28.40;22.10;92658.00;;;;10149354;28;47116;-61
2021/12/27 21:04:14;;;;;;;0.90;0.77;;;21.60;28.40;22.00;92677.00;;;;10152054;28;45369;-59
2021/12/27 21:09:15;;;;;;;1.00;0.65;;;21.60;28.40;22.10;92681.00;;;;10150159;29;46791;-60
2021/12/27 21:14:16;;;;;;;1.00;0.80;;;21.60;28.30;22.00;92650.00;;;;10166571;28;45333;-60
2021/12/27 21:19:17;;;;;;;1.25;0.77;;;21.60;28.40;22.00;92669.00;;;;10151997;29;45530;-60
2021/12/27 21:24:17;;;;;;;1.40;0.90;;;21.60;28.30;22.00;92669.00;;;;10152880;28;46680;-60
2021/12/27 21:29:20;;;;;;;1.00;0.60;;;21.60;28.40;22.00;92677.00;;;;10151900;28;46476;-59
2021/12/27 21:34:21;;;;;;;0.65;0.60;;;21.60;28.40;22.00;92664.00;;;;10169737;28;46040;-59
2021/12/27 21:39:21;;;;;;;1.27;0.73;;;21.50;28.30;21.90;92680.00;;;;10152321;28;48097;-59
2021/12/27 21:44:22;;;;;;;1.20;0.70;;;21.50;28.40;21.90;92674.00;;;;10182828;28;45299;-60
2021/12/27 21:49:23;;;;;;;0.82;0.70;;;21.40;28.40;21.80;92681.00;;;;10158266;29;45315;-59
2021/12/27 21:54:24;;;;;;;0.93;0.75;;;21.40;28.50;21.70;92684.00;;;;10158145;29;46152;-59
2021/12/27 21:59:25;;;;;;;0.80;0.57;;;21.30;28.50;21.70;92668.00;;;;10157126;28;45193;-59
2021/12/27 22:04:29;;;;;;;0.73;0.60;;;21.30;28.50;21.70;92667.00;;;;10157495;29;46788;-60
2021/12/27 22:09:29;;;;;;;1.10;0.75;;;21.30;28.60;21.60;92670.00;;;;10154923;28;48064;-59